Penasse, Minnesota
Current Conditions -  °F | °C
As of 1:54 AM on Saturday 20 Dec 2014 (Local Time) from KFGN Reporting Station
Haze Haze  
Wind Chill: 15°   Ceiling: 1000
Heat Index: 25°   Visibility: 5mi
Dew Point: 23°   Wind: 9mph
Humidity: 93%   Direction: 160°SSE
Pressure: 30.02"   Gusts: NA
Location:  49.2652°N, 95.0542°W
Report Text: KFGN 200754Z AUTO 16008KT 5SM BR OVC010 M04/M05 A3002 RMK AO2
Loading
Personal Weather Stations






























Interactive Weather Map New forecast layout! Learn more

10-Day Weather Forecast

Advertisements
Track Severe Weather on mobile